Time;durP1;ratioP1;P1;durP2;ratioP2;P2;SDS_P1;SDS_P2;PMS_P1;PMS_P2;Temp;Humidity;BMP_temperature;BMP_pressure;BME280_temperature;BME280_humidity;BME280_pressure;Samples;Min_cycle;Max_cycle;Signal;HPM_P1;HPM_P2
2022/10/31 00:00:22;;;;;;;;;;;;;;;;;;4833823;29;20045;-63
2022/10/31 00:02:48;;;;;;;22.88;8.27;;;;;;;;;;4840689;29;20226;-62
2022/10/31 00:05:14;;;;;;;;;;;;;;;;;;4833238;29;20084;-61
2022/10/31 00:07:40;;;;;;;31.33;8.93;;;;;;;;;;4839571;29;19998;-61
2022/10/31 00:10:06;;;;;;;;;;;;;;;;;;4836591;29;20093;-62
2022/10/31 00:12:32;;;;;;;26.15;8.65;;;;;;;;;;4837838;29;20401;-62
2022/10/31 00:14:58;;;;;;;;;;;;;;;;;;4835316;29;20437;-62
2022/10/31 00:17:24;;;;;;;22.27;8.65;;;;;;;;;;4834715;29;19959;-61
2022/10/31 00:19:50;;;;;;;;;;;;;;;;;;4838566;29;20030;-64
2022/10/31 00:22:16;;;;;;;23.90;8.38;;;;;;;;;;4833691;29;20340;-62
2022/10/31 00:24:42;;;;;;;22.67;8.25;;;;;;;;;;4842576;29;20041;-61
2022/10/31 00:27:08;;;;;;;;;;;;;;;;;;4837575;29;20389;-62
2022/10/31 00:29:34;;;;;;;25.73;8.82;;;;;;;;;;4839660;29;19920;-62
2022/10/31 00:32:02;;;;;;;19.85;8.52;;;;;;;;;;4837235;29;20126;-62
2022/10/31 00:34:28;;;;;;;25.88;8.20;;;;;;;;;;4835968;29;20363;-62
2022/10/31 00:36:54;;;;;;;;;;;;;;;;;;4838128;29;20040;-62
2022/10/31 00:39:20;;;;;;;22.42;8.32;;;;;;;;;;4832495;29;20261;-61
2022/10/31 00:41:46;;;;;;;;;;;;;;;;;;4836446;29;20036;-62
2022/10/31 00:44:12;;;;;;;21.88;8.57;;;;;;;;;;4833598;29;20340;-62
2022/10/31 00:46:38;;;;;;;;;;;;;;;;;;4839272;29;20093;-62
2022/10/31 00:49:04;;;;;;;23.70;8.60;;;;;;;;;;4834036;29;19923;-62
2022/10/31 00:51:30;;;;;;;;;;;;;;;;;;4839132;29;20583;-62
2022/10/31 00:53:56;;;;;;;26.15;8.82;;;;;;;;;;4839409;29;19923;-62
2022/10/31 00:56:22;;;;;;;;;;;;;;;;;;4833641;29;20077;-62
2022/10/31 00:58:48;;;;;;;24.25;7.75;;;;;;;;;;4839798;29;20039;-62
2022/10/31 01:01:14;;;;;;;;;;;;;;;;;;4836838;29;20661;-61
2022/10/31 01:03:40;;;;;;;27.23;8.60;;;;;;;;;;4842618;29;19916;-64
2022/10/31 01:06:06;;;;;;;;;;;;;;;;;;4838876;29;20041;-64
2022/10/31 01:08:32;;;;;;;22.45;8.48;;;;;;;;;;4841691;29;19943;-64
2022/10/31 01:11:01;;;;;;;19.23;8.02;;;;;;;;;;4840744;29;20037;-64
2022/10/31 01:13:27;;;;;;;24.00;8.55;;;;;;;;;;4840638;29;20038;-62
2022/10/31 01:15:53;;;;;;;;;;;;;;;;;;4840263;29;20493;-63
2022/10/31 01:18:19;;;;;;;21.63;8.27;;;;;;;;;;4838740;29;20010;-63
2022/10/31 01:20:45;;;;;;;;;;;;;;;;;;4841034;29;20271;-63
2022/10/31 01:23:11;;;;;;;21.52;7.95;;;;;;;;;;4838360;29;19939;-64
2022/10/31 01:25:37;;;;;;;;;;;;;;;;;;4841438;29;20410;-62
2022/10/31 01:28:03;;;;;;;22.10;8.35;;;;;;;;;;4836910;29;20244;-62
2022/10/31 01:30:29;;;;;;;;;;;;;;;;;;4844283;29;20379;-63
2022/10/31 01:32:55;;;;;;;20.52;8.00;;;;;;;;;;4838745;29;19951;-63
2022/10/31 01:35:21;;;;;;;;;;;;;;;;;;4837221;29;20033;-62
2022/10/31 01:37:47;;;;;;;18.52;7.47;;;;;;;;;;4841449;29;19979;-63
2022/10/31 01:40:13;;;;;;;;;;;;;;;;;;4838135;29;20034;-62
2022/10/31 01:42:39;;;;;;;19.35;7.57;;;;;;;;;;4843961;29;19984;-62
2022/10/31 01:45:05;;;;;;;;;;;;;;;;;;4838576;29;20037;-62
2022/10/31 01:47:34;;;;;;;20.98;7.65;;;;;;;;;;4840119;29;19912;-62
2022/10/31 01:50:05;;;;;;;19.85;7.50;;;;;;;;;;4836948;29;20149;-62
2022/10/31 01:52:33;;;;;;;19.13;7.30;;;;;;;;;;4838528;29;20593;-62
2022/10/31 01:54:59;;;;;;;18.25;7.50;;;;;;;;;;4838848;29;20105;-64
2022/10/31 01:57:25;;;;;;;;;;;;;;;;;;4838375;29;20351;-62
2022/10/31 01:59:53;;;;;;;20.35;7.93;;;;;;;;;;4844115;29;20308;-64
2022/10/31 02:02:20;;;;;;;20.73;7.68;;;;;;;;;;4836007;29;20041;-62
2022/10/31 02:04:47;;;;;;;20.13;7.72;;;;;;;;;;4838834;29;20609;-62
2022/10/31 02:07:26;;;;;;;24.15;8.10;;;;;;;;;;4838120;29;20034;-62
2022/10/31 02:09:53;;;;;;;18.83;7.68;;;;;;;;;;4841308;29;20568;-62
2022/10/31 02:12:20;;;;;;;22.08;7.65;;;;;;;;;;4836952;29;20540;-63
2022/10/31 02:14:46;;;;;;;20.20;8.20;;;;;;;;;;4839579;29;20056;-62
2022/10/31 02:17:12;;;;;;;;;;;;;;;;;;4839395;29;20154;-62
2022/10/31 02:19:48;;;;;;;21.73;7.53;;;;;;;;;;4840056;29;19952;-62
2022/10/31 02:22:20;;;;;;;20.08;7.40;;;;;;;;;;4838027;29;20052;-62
2022/10/31 02:25:03;;;;;;;20.70;7.63;;;;;;;;;;4839655;29;20051;-62
2022/10/31 02:27:48;;;;;;;21.05;7.40;;;;;;;;;;4840378;29;20026;-62
2022/10/31 02:30:14;;;;;;;20.77;7.40;;;;;;;;;;4837268;29;20057;-62
2022/10/31 02:32:40;;;;;;;;;;;;;;;;;;4842719;29;20055;-62
2022/10/31 02:35:28;;;;;;;16.65;7.20;;;;;;;;;;4833628;29;20340;-62
2022/10/31 02:37:54;;;;;;;18.77;7.05;;;;;;;;;;4838424;29;20493;-62
2022/10/31 02:40:20;;;;;;;;;;;;;;;;;;4835252;29;20732;-62
2022/10/31 02:42:55;;;;;;;18.67;7.10;;;;;;;;;;4840563;29;20326;-62
2022/10/31 02:45:30;;;;;;;22.35;7.55;;;;;;;;;;4838182;29;20417;-62
2022/10/31 02:47:59;;;;;;;16.98;7.22;;;;;;;;;;4838699;29;20044;-62
2022/10/31 02:50:27;;;;;;;22.15;7.15;;;;;;;;;;4835888;29;20529;-62
2022/10/31 02:52:53;;;;;;;19.27;7.15;;;;;;;;;;4839496;29;20037;-62
2022/10/31 02:55:19;;;;;;;;;;;;;;;;;;4837351;29;20602;-62
2022/10/31 02:57:46;;;;;;;25.25;7.63;;;;;;;;;;4840508;29;20026;-64
2022/10/31 03:00:11;;;;;;;;;;;;;;;;;;4836886;29;20559;-62
2022/10/31 03:02:43;;;;;;;16.95;7.53;;;;;;;;;;4839370;29;19960;-62
2022/10/31 03:05:18;;;;;;;18.63;7.38;;;;;;;;;;4836449;29;20082;-61
2022/10/31 03:07:51;;;;;;;20.42;7.47;;;;;;;;;;4840176;29;20040;-61
2022/10/31 03:10:23;;;;;;;20.23;7.03;;;;;;;;;;4833682;29;20033;-64
2022/10/31 03:12:50;;;;;;;19.83;7.60;;;;;;;;;;4837668;29;20037;-64
2022/10/31 03:15:42;;;;;;;21.33;7.28;;;;;;;;;;4834751;29;20390;-64
2022/10/31 03:18:09;;;;;;;21.30;7.13;;;;;;;;;;4833452;29;20037;-63
2022/10/31 03:20:45;;;;;;;21.55;7.50;;;;;;;;;;4836394;29;20099;-62
2022/10/31 03:23:14;;;;;;;23.10;7.63;;;;;;;;;;4834083;29;20390;-62
2022/10/31 03:25:41;;;;;;;19.45;7.28;;;;;;;;;;4830625;29;20533;-63
2022/10/31 03:28:09;;;;;;;18.65;7.43;;;;;;;;;;4833419;29;20083;-62
2022/10/31 03:30:37;;;;;;;20.80;7.40;;;;;;;;;;4834412;29;20199;-62
2022/10/31 03:33:05;;;;;;;16.75;6.80;;;;;;;;;;4836638;29;20599;-62
2022/10/31 03:35:33;;;;;;;22.27;7.20;;;;;;;;;;4834031;29;20041;-62
2022/10/31 03:38:01;;;;;;;20.00;6.88;;;;;;;;;;4840689;29;20033;-62
2022/10/31 03:40:28;;;;;;;19.00;6.85;;;;;;;;;;4835963;29;20050;-62
2022/10/31 03:42:56;;;;;;;19.05;7.57;;;;;;;;;;4835936;29;20037;-62
2022/10/31 03:45:25;;;;;;;20.70;7.25;;;;;;;;;;4835592;29;20041;-62
2022/10/31 03:47:52;;;;;;;20.15;7.70;;;;;;;;;;4841180;29;20028;-62
2022/10/31 03:50:18;;;;;;;18.58;7.50;;;;;;;;;;4833235;29;20033;-62
2022/10/31 03:52:55;;;;;;;18.02;7.15;;;;;;;;;;4839553;29;20112;-62
2022/10/31 03:55:33;;;;;;;19.48;6.97;;;;;;;;;;4833571;29;20730;-62
2022/10/31 03:58:11;;;;;;;22.42;7.75;;;;;;;;;;4837975;29;20057;-62
2022/10/31 04:00:40;;;;;;;19.05;7.18;;;;;;;;;;4834370;29;20476;-62
2022/10/31 04:03:17;;;;;;;18.60;7.05;;;;;;;;;;4837311;29;20030;-63
2022/10/31 04:05:46;;;;;;;17.35;6.88;;;;;;;;;;4838774;29;20338;-63
2022/10/31 04:08:14;;;;;;;18.67;7.18;;;;;;;;;;4834215;29;20393;-63
2022/10/31 04:10:41;;;;;;;23.30;8.05;;;;;;;;;;4839015;29;20068;-63
2022/10/31 04:13:10;;;;;;;20.58;7.40;;;;;;;;;;4834739;29;20033;-63
2022/10/31 04:15:37;;;;;;;18.73;7.25;;;;;;;;;;4840794;29;20033;-63
2022/10/31 04:18:04;;;;;;;16.75;7.20;;;;;;;;;;4837542;29;20862;-63
2022/10/31 04:20:35;;;;;;;20.77;7.85;;;;;;;;;;4838533;29;20144;-64
2022/10/31 04:23:03;;;;;;;18.83;7.03;;;;;;;;;;4835600;29;20045;-63
2022/10/31 04:25:29;;;;;;;18.63;7.05;;;;;;;;;;4838790;29;20091;-62
2022/10/31 04:27:56;;;;;;;18.45;7.60;;;;;;;;;;4836202;29;20679;-62
2022/10/31 04:30:21;;;;;;;;;;;;;;;;;;4835811;29;21649;-62
2022/10/31 04:32:48;;;;;;;22.50;7.38;;;;;;;;;;4836976;29;20014;-62
2022/10/31 04:35:14;;;;;;;;;;;;;;;;;;4826645;29;20120;-65
2022/10/31 04:37:40;;;;;;;21.58;7.10;;;;;;;;;;4839516;29;20419;-62
2022/10/31 04:40:06;;;;;;;;;;;;;;;;;;4833073;29;20101;-61
2022/10/31 04:42:32;;;;;;;25.48;8.07;;;;;;;;;;4842719;29;20299;-62
2022/10/31 04:44:58;;;;;;;20.73;7.32;;;;;;;;;;4836970;29;20033;-62
2022/10/31 04:47:24;;;;;;;18.90;6.88;;;;;;;;;;4836444;29;20045;-62
2022/10/31 04:49:50;;;;;;;;;;;;;;;;;;4837857;29;20060;-62
2022/10/31 04:52:16;;;;;;;19.70;7.10;;;;;;;;;;4835222;29;20391;-62
2022/10/31 04:54:42;;;;;;;;;;;;;;;;;;4837593;29;20042;-62
2022/10/31 04:57:09;;;;;;;18.15;6.85;;;;;;;;;;4834100;29;19934;-61
2022/10/31 04:59:35;;;;;;;19.50;7.32;;;;;;;;;;4836397;29;20060;-61
2022/10/31 05:02:01;;;;;;;;;;;;;;;;;;4835508;29;20247;-62
2022/10/31 05:04:28;;;;;;;16.92;7.05;;;;;;;;;;4838248;29;19924;-62
2022/10/31 05:06:53;;;;;;;;;;;;;;;;;;4840289;29;21365;-62
2022/10/31 05:09:20;;;;;;;17.70;7.03;;;;;;;;;;4835309;29;19916;-62
2022/10/31 05:11:45;;;;;;;;;;;;;;;;;;4838190;29;20037;-62
2022/10/31 05:14:12;;;;;;;17.52;6.97;;;;;;;;;;4834489;29;19927;-62
2022/10/31 05:16:38;;;;;;;22.20;6.93;;;;;;;;;;4836931;29;20049;-62
2022/10/31 05:19:04;;;;;;;;;;;;;;;;;;4836168;29;20749;-65
2022/10/31 05:21:30;;;;;;;17.83;6.28;;;;;;;;;;4839743;29;19924;-62
2022/10/31 05:23:56;;;;;;;16.02;6.18;;;;;;;;;;4838495;29;20089;-62
2022/10/31 05:26:22;;;;;;;;;;;;;;;;;;4834257;29;20041;-62
2022/10/31 05:28:48;;;;;;;17.95;6.90;;;;;;;;;;4836747;29;20423;-62
2022/10/31 05:31:14;;;;;;;;;;;;;;;;;;4835733;29;20370;-62
2022/10/31 05:33:40;;;;;;;18.73;6.68;;;;;;;;;;4839787;29;20300;-62
2022/10/31 05:36:06;;;;;;;16.35;7.28;;;;;;;;;;4830772;29;20453;-62
2022/10/31 05:38:32;;;;;;;;;;;;;;;;;;4834316;29;20062;-62
2022/10/31 05:40:59;;;;;;;20.15;7.35;;;;;;;;;;4836981;29;20324;-62
2022/10/31 05:43:26;;;;;;;22.75;7.88;;;;;;;;;;4836869;29;20522;-62
2022/10/31 05:45:52;;;;;;;;;;;;;;;;;;4842836;29;20056;-62
2022/10/31 05:48:18;;;;;;;19.45;7.05;;;;;;;;;;4838645;29;19916;-62
2022/10/31 05:50:44;;;;;;;;;;;;;;;;;;4842860;29;20351;-62
2022/10/31 05:53:10;;;;;;;18.88;7.35;;;;;;;;;;4838467;29;19996;-62
2022/10/31 05:55:36;;;;;;;;;;;;;;;;;;4838635;29;20054;-63
2022/10/31 05:58:03;;;;;;;20.33;7.30;;;;;;;;;;4841102;29;19928;-62
2022/10/31 06:00:29;;;;;;;23.55;7.57;;;;;;;;;;4837565;29;20033;-62
2022/10/31 06:03:03;;;;;;;17.33;6.68;;;;;;;;;;4843231;29;20185;-64
2022/10/31 06:05:30;;;;;;;16.27;6.40;;;;;;;;;;4842080;29;20090;-63
2022/10/31 06:07:56;;;;;;;19.70;6.90;;;;;;;;;;4841720;29;20033;-64
2022/10/31 06:10:23;;;;;;;20.65;6.53;;;;;;;;;;4840164;29;20046;-62
2022/10/31 06:12:49;;;;;;;18.80;6.60;;;;;;;;;;4840495;29;20033;-62
2022/10/31 06:15:15;;;;;;;;;;;;;;;;;;4840607;29;20545;-62
2022/10/31 06:17:41;;;;;;;21.70;7.68;;;;;;;;;;4842335;29;19916;-62
2022/10/31 06:20:07;;;;;;;;;;;;;;;;;;4838103;29;20034;-62
2022/10/31 06:22:33;;;;;;;19.33;6.78;;;;;;;;;;4843023;29;19912;-62
2022/10/31 06:24:59;;;;;;;;;;;;;;;;;;4841012;29;20767;-62
2022/10/31 06:27:25;;;;;;;18.13;7.35;;;;;;;;;;4840175;29;19920;-64
2022/10/31 06:29:52;;;;;;;23.38;6.82;;;;;;;;;;4839349;29;20105;-62
2022/10/31 06:32:18;;;;;;;17.75;7.10;;;;;;;;;;4836205;29;20065;-62
2022/10/31 06:34:47;;;;;;;16.27;7.45;;;;;;;;;;4837552;29;20393;-62
2022/10/31 06:37:14;;;;;;;18.58;7.22;;;;;;;;;;4839788;29;20460;-62
2022/10/31 06:39:40;;;;;;;17.95;7.13;;;;;;;;;;4839701;29;20033;-62
2022/10/31 06:42:06;;;;;;;;;;;;;;;;;;4842524;29;20542;-63
2022/10/31 06:44:32;;;;;;;17.73;6.72;;;;;;;;;;4838255;29;19916;-63
2022/10/31 06:46:59;;;;;;;17.73;6.53;;;;;;;;;;4841784;29;20041;-63
2022/10/31 06:49:25;;;;;;;17.42;7.18;;;;;;;;;;4837984;29;20068;-63
2022/10/31 06:51:51;;;;;;;23.90;7.28;;;;;;;;;;4837389;29;20480;-62
2022/10/31 06:54:17;;;;;;;17.95;7.13;;;;;;;;;;4838716;29;20820;-63
2022/10/31 06:56:46;;;;;;;19.27;8.00;;;;;;;;;;4840104;29;20251;-62
2022/10/31 06:59:12;;;;;;;21.63;7.93;;;;;;;;;;4833468;29;20561;-63
2022/10/31 07:01:39;;;;;;;21.58;7.43;;;;;;;;;;4838985;29;20343;-62
2022/10/31 07:04:05;;;;;;;;;;;;;;;;;;4839724;29;20562;-63
2022/10/31 07:06:31;;;;;;;17.80;6.85;;;;;;;;;;4839847;29;19916;-62
2022/10/31 07:08:57;;;;;;;14.10;7.05;;;;;;;;;;4846209;29;20076;-64
2022/10/31 07:11:23;;;;;;;18.08;7.00;;;;;;;;;;4837161;29;20430;-64
2022/10/31 07:13:49;;;;;;;;;;;;;;;;;;4844390;29;20393;-62
2022/10/31 07:16:15;;;;;;;19.90;8.10;;;;;;;;;;4839993;29;20367;-64
2022/10/31 07:18:41;;;;;;;;;;;;;;;;;;4841455;29;20253;-64
2022/10/31 07:21:08;;;;;;;22.25;8.32;;;;;;;;;;4837529;29;20379;-61
2022/10/31 07:23:34;;;;;;;;;;;;;;;;;;4841578;29;20029;-62
2022/10/31 07:26:01;;;;;;;19.08;8.00;;;;;;;;;;4841317;29;19927;-62
2022/10/31 07:28:28;;;;;;;21.08;8.02;;;;;;;;;;4840680;29;20041;-62
2022/10/31 07:30:55;;;;;;;21.48;8.73;;;;;;;;;;4837286;29;20061;-62
2022/10/31 07:33:21;;;;;;;22.90;9.20;;;;;;;;;;4834375;29;20045;-62
2022/10/31 07:35:47;;;;;;;18.55;8.15;;;;;;;;;;4836256;29;20029;-63
2022/10/31 07:38:14;;;;;;;21.63;7.65;;;;;;;;;;4833499;29;20610;-62
2022/10/31 07:40:41;;;;;;;29.65;9.32;;;;;;;;;;4840030;29;20231;-63
2022/10/31 07:43:08;;;;;;;21.45;7.88;;;;;;;;;;4833645;29;20522;-63
2022/10/31 07:45:34;;;;;;;19.52;7.72;;;;;;;;;;4835223;29;20365;-62
2022/10/31 07:48:02;;;;;;;23.95;8.05;;;;;;;;;;4840657;29;20037;-63
2022/10/31 07:50:30;;;;;;;20.92;8.13;;;;;;;;;;4837189;29;20041;-62
2022/10/31 07:53:04;;;;;;;21.42;8.18;;;;;;;;;;4838706;29;20457;-65
2022/10/31 07:55:30;;;;;;;20.10;7.05;;;;;;;;;;4837539;29;20062;-62
2022/10/31 07:58:01;;;;;;;20.02;7.82;;;;;;;;;;4836024;29;20557;-62
2022/10/31 08:00:28;;;;;;;21.17;7.88;;;;;;;;;;4838113;29;20442;-62
2022/10/31 08:03:20;;;;;;;17.63;6.97;;;;;;;;;;4836121;29;20030;-62
2022/10/31 08:05:46;;;;;;;20.52;7.95;;;;;;;;;;4830850;29;20062;-64
2022/10/31 08:08:13;;;;;;;21.20;7.45;;;;;;;;;;4834261;29;20125;-61
2022/10/31 08:10:40;;;;;;;30.17;9.32;;;;;;;;;;4836861;29;20030;-62
2022/10/31 08:13:07;;;;;;;26.48;9.82;;;;;;;;;;4832212;29;20068;-62
2022/10/31 08:15:36;;;;;;;25.20;10.57;;;;;;;;;;4836869;29;20133;-62
2022/10/31 08:18:03;;;;;;;22.15;10.38;;;;;;;;;;4836578;29;20038;-63
2022/10/31 08:20:29;;;;;;;27.25;11.98;;;;;;;;;;4836769;29;20076;-63
2022/10/31 08:23:07;;;;;;;32.35;11.20;;;;;;;;;;4836025;29;20354;-63
2022/10/31 08:25:34;;;;;;;25.33;9.52;;;;;;;;;;4837543;29;20781;-63
2022/10/31 08:28:04;;;;;;;27.95;10.55;;;;;;;;;;4837757;29;20040;-63
2022/10/31 08:30:33;;;;;;;21.63;9.10;;;;;;;;;;4841370;29;20039;-63
2022/10/31 08:33:01;;;;;;;21.55;8.30;;;;;;;;;;4838253;29;20132;-63
2022/10/31 08:35:27;;;;;;;18.40;7.72;;;;;;;;;;4836744;29;20148;-62
2022/10/31 08:37:55;;;;;;;18.48;7.75;;;;;;;;;;4835203;29;20029;-63
2022/10/31 08:40:21;;;;;;;20.85;7.55;;;;;;;;;;4830743;29;20673;-62
2022/10/31 08:42:47;;;;;;;16.80;6.45;;;;;;;;;;4835073;29;20592;-63
2022/10/31 08:45:13;;;;;;;21.10;6.80;;;;;;;;;;4833520;29;20136;-63
2022/10/31 08:47:40;;;;;;;17.20;6.90;;;;;;;;;;4839736;29;20401;-63
2022/10/31 08:50:06;;;;;;;17.15;6.88;;;;;;;;;;4834795;29;20029;-63
2022/10/31 08:52:32;;;;;;;22.55;7.60;;;;;;;;;;4836338;29;20149;-63
2022/10/31 08:54:58;;;;;;;19.48;6.97;;;;;;;;;;4835048;29;20117;-63
2022/10/31 08:57:24;;;;;;;21.10;6.88;;;;;;;;;;4834348;29;20124;-63
2022/10/31 08:59:50;;;;;;;16.55;6.57;;;;;;;;;;4835866;29;20034;-64
2022/10/31 09:02:16;;;;;;;19.77;7.15;;;;;;;;;;4834045;29;20061;-63
2022/10/31 09:04:42;;;;;;;17.80;6.53;;;;;;;;;;4836882;29;20184;-63
2022/10/31 09:07:09;;;;;;;16.52;6.65;;;;;;;;;;4834691;29;20037;-63
2022/10/31 09:09:35;;;;;;;16.60;6.00;;;;;;;;;;4836281;29;20041;-63
2022/10/31 09:12:02;;;;;;;23.35;7.13;;;;;;;;;;4837370;29;20454;-62
2022/10/31 09:14:28;;;;;;;18.27;6.22;;;;;;;;;;4835182;29;20405;-63
2022/10/31 09:16:54;;;;;;;15.70;6.57;;;;;;;;;;4835223;29;20029;-63
2022/10/31 09:19:21;;;;;;;15.88;6.35;;;;;;;;;;4833348;29;20034;-63
2022/10/31 09:21:47;;;;;;;18.55;6.13;;;;;;;;;;4838698;29;20116;-63
2022/10/31 09:24:13;;;;;;;15.30;6.50;;;;;;;;;;4835589;29;20033;-63
2022/10/31 09:26:39;;;;;;;19.60;7.05;;;;;;;;;;4840750;29;20046;-63
2022/10/31 09:29:06;;;;;;;22.48;6.60;;;;;;;;;;4837295;29;20044;-63
2022/10/31 09:31:32;;;;;;;19.58;6.57;;;;;;;;;;4841813;29;20041;-63
2022/10/31 09:33:58;;;;;;;18.38;6.80;;;;;;;;;;4839673;29;20580;-63
2022/10/31 09:36:24;;;;;;;17.25;6.10;;;;;;;;;;4836111;29;20141;-63
2022/10/31 09:38:52;;;;;;;17.75;6.40;;;;;;;;;;4838443;29;20716;-63
2022/10/31 09:41:30;;;;;;;16.63;6.10;;;;;;;;;;4835403;29;20034;-63
2022/10/31 09:44:03;;;;;;;17.48;6.82;;;;;;;;;;4838567;29;20469;-64
2022/10/31 09:46:38;;;;;;;19.98;7.78;;;;;;;;;;4838878;29;20109;-64
2022/10/31 09:49:16;;;;;;;16.48;6.43;;;;;;;;;;4836452;29;20503;-64
2022/10/31 09:51:46;;;;;;;19.20;6.25;;;;;;;;;;4837782;29;20029;-64
2022/10/31 09:54:12;;;;;;;15.02;6.15;;;;;;;;;;4835092;29;20124;-64
2022/10/31 09:56:38;;;;;;;16.08;5.57;;;;;;;;;;4839743;29;20125;-64
2022/10/31 09:59:06;;;;;;;16.40;5.35;;;;;;;;;;4836814;29;20114;-64
2022/10/31 10:01:32;;;;;;;17.92;6.53;;;;;;;;;;4840664;29;20112;-63
2022/10/31 10:04:10;;;;;;;20.45;6.53;;;;;;;;;;4836842;29;20448;-63
2022/10/31 10:06:40;;;;;;;15.10;6.13;;;;;;;;;;4836853;29;20686;-63
2022/10/31 10:09:07;;;;;;;20.10;6.07;;;;;;;;;;4838250;29;20041;-63
2022/10/31 10:11:43;;;;;;;17.73;5.40;;;;;;;;;;4838319;29;20409;-63
2022/10/31 10:14:41;;;;;;;19.08;5.93;;;;;;;;;;4838071;29;20064;-63
2022/10/31 10:17:26;;;;;;;15.30;5.82;;;;;;;;;;4723966;30;20035;-65
2022/10/31 10:20:05;;;;;;;20.20;6.13;;;;;;;;;;4743223;30;20356;-63
2022/10/31 10:22:50;;;;;;;17.27;6.25;;;;;;;;;;4743595;30;20329;-63
2022/10/31 10:25:23;;;;;;;15.18;5.38;;;;;;;;;;4738241;30;20515;-63
2022/10/31 10:28:08;;;;;;;15.45;5.68;;;;;;;;;;4727714;30;20347;-68
2022/10/31 10:30:38;;;;;;;18.75;6.10;;;;;;;;;;4743244;30;20035;-63
2022/10/31 10:33:12;;;;;;;16.52;6.22;;;;;;;;;;4723784;30;20039;-63
2022/10/31 10:35:47;;;;;;;16.20;5.43;;;;;;;;;;4739571;30;20043;-63
2022/10/31 10:38:20;;;;;;;18.20;5.47;;;;;;;;;;4737903;30;20106;-64
2022/10/31 10:40:47;;;;;;;18.30;5.93;;;;;;;;;;4739914;30;20312;-63
2022/10/31 10:43:22;;;;;;;17.00;5.95;;;;;;;;;;4740056;30;20074;-63
2022/10/31 10:48:46;;;;;;;17.27;5.78;;;;;;;;;;4740953;30;20292;-64
2022/10/31 10:51:21;;;;;;;20.08;5.85;;;;;;;;;;4723647;30;20571;-64
2022/10/31 10:54:02;;;;;;;17.73;5.63;;;;;;;;;;4804209;29;20054;-64
2022/10/31 10:56:37;;;;;;;16.70;5.47;;;;;;;;;;4835192;29;20057;-63
2022/10/31 10:59:04;;;;;;;17.80;6.32;;;;;;;;;;4836923;29;20033;-64
2022/10/31 11:01:30;;;;;;;14.20;6.05;;;;;;;;;;4837453;29;20458;-63
2022/10/31 11:03:56;;;;;;;16.23;5.22;;;;;;;;;;4835533;29;20526;-64
2022/10/31 11:06:25;;;;;;;15.82;5.90;;;;;;;;;;4834391;29;20041;-63
2022/10/31 11:08:52;;;;;;;19.33;6.20;;;;;;;;;;4839610;29;20201;-63
2022/10/31 11:11:18;;;;;;;17.58;6.72;;;;;;;;;;4836540;29;20580;-63
2022/10/31 11:13:46;;;;;;;14.68;5.22;;;;;;;;;;4838923;29;20029;-63
2022/10/31 11:16:14;;;;;;;16.27;6.00;;;;;;;;;;4836245;29;20510;-63
2022/10/31 11:18:43;;;;;;;16.27;5.65;;;;;;;;;;4838611;29;20040;-63
2022/10/31 11:21:21;;;;;;;17.38;5.80;;;;;;;;;;4836394;29;20081;-63
2022/10/31 11:23:47;;;;;;;17.75;6.07;;;;;;;;;;4839174;29;20033;-64
2022/10/31 11:26:20;;;;;;;16.52;5.53;;;;;;;;;;4835729;29;20167;-64
2022/10/31 11:28:57;;;;;;;14.52;5.20;;;;;;;;;;4838982;29;20211;-64
2022/10/31 11:31:23;;;;;;;15.13;5.43;;;;;;;;;;4835081;29;21140;-64
2022/10/31 11:33:51;;;;;;;13.63;5.18;;;;;;;;;;4837971;29;20041;-64
2022/10/31 11:36:17;;;;;;;15.32;5.38;;;;;;;;;;4833140;29;20089;-64
2022/10/31 11:38:44;;;;;;;21.73;5.15;;;;;;;;;;4840069;29;20116;-64
2022/10/31 11:41:13;;;;;;;15.10;5.72;;;;;;;;;;4835187;29;20648;-64
2022/10/31 11:43:40;;;;;;;14.57;5.30;;;;;;;;;;4837891;29;20033;-64
2022/10/31 11:46:12;;;;;;;14.38;4.93;;;;;;;;;;4832640;29;20037;-63
2022/10/31 11:48:47;;;;;;;15.80;4.82;;;;;;;;;;4839385;29;20033;-64
2022/10/31 11:51:13;;;;;;;16.35;5.53;;;;;;;;;;4836524;29;20445;-64
2022/10/31 11:53:48;;;;;;;15.10;5.75;;;;;;;;;;4838091;29;20128;-63
2022/10/31 11:56:15;;;;;;;15.45;5.45;;;;;;;;;;4835666;29;20046;-63
2022/10/31 11:58:42;;;;;;;17.52;5.60;;;;;;;;;;4837119;29;20038;-64
2022/10/31 12:01:23;;;;;;;18.65;5.70;;;;;;;;;;4837391;29;20040;-64
2022/10/31 12:03:55;;;;;;;16.70;5.95;;;;;;;;;;4836647;29;20130;-63
2022/10/31 12:06:29;;;;;;;19.05;5.65;;;;;;;;;;4839133;29;20726;-64
2022/10/31 12:08:55;;;;;;;16.95;5.55;;;;;;;;;;4836557;29;20584;-64
2022/10/31 12:11:24;;;;;;;14.10;5.22;;;;;;;;;;4833771;29;22875;-65
2022/10/31 12:14:13;;;;;;;15.35;5.40;;;;;;;;;;4837828;29;20549;-65
2022/10/31 12:16:42;;;;;;;17.35;5.20;;;;;;;;;;4834851;29;20445;-63
2022/10/31 12:19:11;;;;;;;15.70;5.13;;;;;;;;;;4832559;29;20029;-63
2022/10/31 12:21:38;;;;;;;17.25;5.55;;;;;;;;;;4837894;29;20082;-63
2022/10/31 12:24:16;;;;;;;21.02;5.95;;;;;;;;;;4834117;29;20040;-63
2022/10/31 12:26:42;;;;;;;22.55;5.15;;;;;;;;;;4836455;29;20048;-65
2022/10/31 12:29:08;;;;;;;16.80;5.60;;;;;;;;;;4832371;29;20037;-64
2022/10/31 12:31:47;;;;;;;16.48;5.65;;;;;;;;;;4836293;29;20026;-64
2022/10/31 12:34:32;;;;;;;13.25;5.45;;;;;;;;;;4834355;29;20048;-64
2022/10/31 12:37:08;;;;;;;16.60;5.55;;;;;;;;;;4835293;29;20026;-64
2022/10/31 12:39:53;;;;;;;18.95;5.18;;;;;;;;;;4833222;29;20355;-64
2022/10/31 12:42:38;;;;;;;21.58;5.90;;;;;;;;;;4832085;29;20480;-64
2022/10/31 12:45:23;;;;;;;14.60;5.20;;;;;;;;;;4833909;29;20132;-63
2022/10/31 12:48:07;;;;;;;14.00;5.47;;;;;;;;;;4837032;29;20283;-64
2022/10/31 12:50:37;;;;;;;15.32;5.95;;;;;;;;;;4835763;29;20267;-65
2022/10/31 12:53:11;;;;;;;17.33;5.30;;;;;;;;;;4832978;29;20025;-64
2022/10/31 12:55:43;;;;;;;16.37;5.97;;;;;;;;;;4835530;29;20050;-65
2022/10/31 12:58:19;;;;;;;16.33;5.47;;;;;;;;;;4840453;29;20280;-65
2022/10/31 13:00:47;;;;;;;20.67;5.88;;;;;;;;;;4846860;29;20017;-64
2022/10/31 13:03:19;;;;;;;17.15;5.82;;;;;;;;;;4839143;29;20041;-65
2022/10/31 13:05:47;;;;;;;18.33;6.05;;;;;;;;;;4839866;29;20029;-65
2022/10/31 13:08:22;;;;;;;16.98;5.63;;;;;;;;;;4838120;29;20128;-65
2022/10/31 13:10:51;;;;;;;16.20;5.65;;;;;;;;;;4840617;29;20025;-63
2022/10/31 13:13:17;;;;;;;21.80;6.13;;;;;;;;;;4839311;29;20038;-64
2022/10/31 13:15:53;;;;;;;15.02;6.20;;;;;;;;;;4843364;29;20026;-64
2022/10/31 13:18:27;;;;;;;14.68;5.53;;;;;;;;;;4841261;29;20062;-64
2022/10/31 13:20:54;;;;;;;14.35;5.60;;;;;;;;;;4844926;29;20058;-65
2022/10/31 13:23:30;;;;;;;14.10;5.55;;;;;;;;;;4840979;29;20121;-64
2022/10/31 13:25:58;;;;;;;15.82;6.38;;;;;;;;;;4845401;29;20101;-64
2022/10/31 13:28:24;;;;;;;16.95;6.07;;;;;;;;;;4840334;29;20045;-64
2022/10/31 13:30:51;;;;;;;14.13;5.82;;;;;;;;;;4842813;29;20565;-64
2022/10/31 13:33:28;;;;;;;14.40;6.25;;;;;;;;;;4838054;29;20033;-65
2022/10/31 13:36:18;;;;;;;22.33;6.53;;;;;;;;;;4840998;29;20034;-64
2022/10/31 13:39:04;;;;;;;16.92;5.78;;;;;;;;;;4841043;29;20069;-65
2022/10/31 13:42:05;;;;;;;15.02;5.90;;;;;;;;;;4843736;29;20076;-65
2022/10/31 13:44:37;;;;;;;14.75;5.82;;;;;;;;;;4767655;29;20039;-65
2022/10/31 13:47:03;;;;;;;17.25;6.15;;;;;;;;;;4763674;29;20051;-65
2022/10/31 13:49:29;;;;;;;21.38;6.47;;;;;;;;;;4764023;29;20041;-65
2022/10/31 13:52:11;;;;;;;17.40;7.07;;;;;;;;;;4768328;29;20039;-64
2022/10/31 13:54:37;;;;;;;16.05;5.95;;;;;;;;;;4763994;29;20120;-65
2022/10/31 13:57:07;;;;;;;16.85;5.60;;;;;;;;;;4739598;29;20054;-62
2022/10/31 13:59:36;;;;;;;17.13;5.95;;;;;;;;;;4724366;30;20510;-64
2022/10/31 14:02:13;;;;;;;14.80;5.63;;;;;;;;;;4744887;30;20118;-63
2022/10/31 14:04:45;;;;;;;14.70;6.10;;;;;;;;;;4748011;30;20082;-63
2022/10/31 14:07:13;;;;;;;13.93;5.88;;;;;;;;;;4743856;30;20096;-65
2022/10/31 14:10:00;;;;;;;13.10;5.63;;;;;;;;;;4730719;30;20099;-66
2022/10/31 14:12:34;;;;;;;15.33;6.03;;;;;;;;;;4728345;30;20079;-65
2022/10/31 14:15:21;;;;;;;18.00;6.65;;;;;;;;;;4744784;30;20180;-65
2022/10/31 14:17:50;;;;;;;14.82;6.03;;;;;;;;;;4747648;29;20460;-65
2022/10/31 14:20:16;;;;;;;17.85;6.32;;;;;;;;;;4803023;29;20026;-65
2022/10/31 14:22:43;;;;;;;15.68;5.70;;;;;;;;;;4807483;29;20574;-65
2022/10/31 14:25:44;;;;;;;17.05;6.00;;;;;;;;;;4799877;29;20030;-64
2022/10/31 14:28:31;;;;;;;14.68;6.00;;;;;;;;;;4763161;29;20134;-64
2022/10/31 14:30:59;;;;;;;16.90;6.20;;;;;;;;;;4761852;29;20047;-64
2022/10/31 14:33:26;;;;;;;16.10;5.95;;;;;;;;;;4762846;29;20048;-64
2022/10/31 14:36:09;;;;;;;14.90;5.72;;;;;;;;;;4764171;29;20139;-65
2022/10/31 14:38:38;;;;;;;17.20;6.00;;;;;;;;;;4759160;29;20497;-65
2022/10/31 14:41:26;;;;;;;17.77;6.32;;;;;;;;;;4762696;29;20038;-64
2022/10/31 14:43:52;;;;;;;18.38;6.40;;;;;;;;;;4765403;29;20043;-64
2022/10/31 14:46:18;;;;;;;20.90;6.03;;;;;;;;;;4759362;29;20047;-64
2022/10/31 14:48:59;;;;;;;13.43;5.55;;;;;;;;;;4761901;29;20081;-64
2022/10/31 14:51:33;;;;;;;16.35;6.13;;;;;;;;;;4761570;29;20040;-65
2022/10/31 14:54:02;;;;;;;14.93;6.22;;;;;;;;;;4764621;29;20039;-65
2022/10/31 14:56:34;;;;;;;14.07;6.30;;;;;;;;;;4758624;29;20051;-65
2022/10/31 14:59:05;;;;;;;15.60;6.38;;;;;;;;;;4779749;29;20466;-64
2022/10/31 15:01:34;;;;;;;17.05;6.20;;;;;;;;;;4782918;29;20387;-63